createdAt,value
2023-02-03T00:00:24.732Z,7.82
2023-02-03T00:01:11.892Z,11.25
2023-02-03T00:01:58.673Z,8.15
2023-02-03T00:02:45.611Z,9.98
2023-02-03T00:03:32.462Z,7.45
2023-02-03T00:04:19.325Z,7.15
2023-02-03T00:05:06.613Z,6.97
2023-02-03T00:05:53.992Z,7.57
2023-02-03T00:06:40.941Z,7.20
2023-02-03T00:07:28.017Z,8.98
2023-02-03T00:08:15.052Z,11.32
2023-02-03T00:09:02.147Z,9.45
2023-02-03T00:09:49.036Z,6.53
2023-02-03T00:10:37.530Z,7.57
2023-02-03T00:11:24.500Z,8.05
2023-02-03T00:12:11.332Z,13.73
2023-02-03T00:12:58.332Z,6.90
2023-02-03T00:13:45.121Z,8.90
2023-02-03T00:14:33.750Z,7.57
2023-02-03T00:15:20.651Z,8.80
2023-02-03T00:16:07.866Z,6.07
2023-02-03T00:16:54.712Z,7.60
2023-02-03T00:17:41.471Z,5.30
2023-02-03T00:18:28.692Z,9.45
2023-02-03T00:19:17.396Z,7.57
2023-02-03T00:20:04.749Z,11.00
2023-02-03T00:20:51.472Z,7.90
2023-02-03T00:21:38.302Z,7.47
2023-02-03T00:22:25.115Z,8.02
2023-02-03T00:23:12.814Z,9.70
2023-02-03T00:23:59.543Z,7.05
2023-02-03T00:24:46.339Z,7.80
2023-02-03T00:25:33.441Z,7.35
2023-02-03T00:26:20.371Z,8.25
2023-02-03T00:27:07.263Z,12.40
2023-02-03T00:27:53.995Z,7.50
2023-02-03T00:28:41.276Z,11.93
2023-02-03T00:29:28.125Z,8.52
2023-02-03T00:30:14.882Z,9.27
2023-02-03T00:31:01.668Z,6.95
2023-02-03T00:31:48.571Z,9.68
2023-02-03T00:32:35.510Z,7.70
2023-02-03T00:33:22.352Z,7.05
2023-02-03T00:34:09.195Z,8.13
2023-02-03T00:34:56.028Z,9.50
2023-02-03T00:35:42.970Z,8.82
2023-02-03T00:36:29.813Z,7.03
2023-02-03T00:37:16.595Z,9.00
2023-02-03T00:38:03.422Z,9.13
2023-02-03T00:38:50.429Z,8.55
2023-02-03T00:39:37.521Z,8.95
2023-02-03T00:40:26.217Z,7.28
2023-02-03T00:41:13.202Z,8.25
2023-02-03T00:41:59.998Z,9.30
2023-02-03T00:42:47.010Z,8.43
2023-02-03T00:43:34.075Z,9.85
2023-02-03T00:44:20.865Z,6.10
2023-02-03T00:45:08.075Z,7.18
2023-02-03T00:45:55.027Z,8.77
2023-02-03T00:46:41.992Z,9.27
2023-02-03T00:47:28.765Z,8.68
2023-02-03T00:48:15.553Z,8.20
2023-02-03T00:49:03.608Z,7.18
2023-02-03T00:49:50.658Z,8.75
2023-02-03T00:50:37.559Z,6.32
2023-02-03T00:51:24.419Z,7.78
2023-02-03T00:52:11.233Z,8.38
2023-02-03T00:52:58.008Z,13.35
2023-02-03T00:53:44.764Z,8.95
2023-02-03T00:54:32.762Z,8.13
2023-02-03T00:55:20.568Z,7.75
2023-02-03T00:56:12.746Z,8.32
2023-02-03T00:56:59.612Z,9.63
2023-02-03T00:57:46.439Z,7.97
2023-02-03T00:58:33.252Z,7.95
2023-02-03T00:59:20.020Z,8.95
2023-02-03T01:00:07.714Z,9.27
2023-02-03T01:00:57.126Z,8.10
2023-02-03T01:01:44.033Z,7.43
2023-02-03T01:02:30.850Z,8.18
2023-02-03T01:03:17.626Z,6.68
2023-02-03T01:04:05.012Z,7.37
2023-02-03T01:04:51.798Z,10.98
2023-02-03T01:05:38.815Z,7.35
2023-02-03T01:06:25.825Z,7.68
2023-02-03T01:07:12.813Z,5.82
2023-02-03T01:08:00.968Z,9.30
2023-02-03T01:08:48.219Z,11.10
2023-02-03T01:09:36.052Z,11.50
2023-02-03T01:10:22.829Z,11.50
2023-02-03T01:11:11.905Z,6.12
2023-02-03T01:11:58.650Z,7.57
2023-02-03T01:12:45.444Z,8.52
2023-02-03T01:13:32.254Z,8.25
2023-02-03T01:14:19.023Z,8.88
2023-02-03T01:15:06.242Z,8.45
2023-02-03T01:15:53.040Z,11.15
2023-02-03T01:16:40.086Z,9.68
2023-02-03T01:17:27.038Z,9.55
2023-02-03T01:18:14.274Z,9.82
2023-02-03T01:19:01.053Z,8.90
2023-02-03T01:19:47.864Z,9.85
2023-02-03T01:20:35.522Z,8.88
2023-02-03T01:21:27.201Z,9.55
2023-02-03T01:22:14.054Z,7.05
2023-02-03T01:23:00.800Z,8.63
2023-02-03T01:23:47.960Z,6.47
2023-02-03T01:24:34.733Z,8.23
2023-02-03T01:25:21.685Z,6.95
2023-02-03T01:26:11.191Z,10.25
2023-02-03T01:26:57.982Z,9.73
2023-02-03T01:27:44.839Z,9.00
2023-02-03T01:28:31.993Z,11.45
2023-02-03T01:29:18.753Z,9.27
2023-02-03T01:30:05.842Z,9.20
2023-02-03T01:30:52.707Z,9.48
2023-02-03T01:31:41.178Z,8.85
2023-02-03T01:32:28.192Z,9.70
2023-02-03T01:33:15.032Z,9.40
2023-02-03T01:34:02.095Z,10.63
2023-02-03T01:34:48.829Z,9.50
2023-02-03T01:35:36.395Z,8.93
2023-02-03T01:36:25.470Z,10.57
2023-02-03T01:37:12.253Z,9.23
2023-02-03T01:37:59.807Z,8.45
2023-02-03T01:38:46.781Z,9.23
2023-02-03T01:39:33.591Z,8.70
2023-02-03T01:40:20.496Z,7.43
2023-02-03T01:41:13.010Z,8.65
2023-02-03T01:41:59.872Z,8.00
2023-02-03T01:42:46.580Z,7.35
2023-02-03T01:43:36.131Z,7.87
2023-02-03T01:44:41.620Z,7.32
2023-02-03T01:45:28.422Z,8.82
2023-02-03T01:46:21.182Z,12.55
2023-02-03T01:47:19.841Z,8.02
2023-02-03T01:48:07.823Z,6.62
2023-02-03T01:49:01.753Z,8.68
2023-02-03T01:50:11.775Z,9.85
2023-02-03T01:51:03.653Z,8.43
2023-02-03T01:51:51.082Z,9.93
2023-02-03T01:52:38.822Z,5.93
2023-02-03T01:53:25.606Z,7.07
2023-02-03T01:54:15.022Z,6.72
2023-02-03T01:55:03.943Z,7.78
2023-02-03T01:55:51.480Z,7.37
2023-02-03T01:56:41.373Z,7.57
2023-02-03T01:57:37.383Z,7.50
2023-02-03T01:58:27.632Z,8.60
2023-02-03T01:59:16.653Z,9.00
2023-02-03T02:00:06.033Z,6.55
2023-02-03T02:00:54.332Z,9.63
2023-02-03T02:01:41.199Z,8.95
2023-02-03T02:02:28.196Z,6.65
2023-02-03T02:03:15.444Z,7.90
2023-02-03T02:04:03.482Z,5.95
2023-02-03T02:04:55.423Z,7.70
2023-02-03T02:05:46.823Z,6.82
2023-02-03T02:06:33.644Z,7.85
2023-02-03T02:07:20.453Z,5.78
2023-02-03T02:08:07.671Z,7.78
2023-02-03T02:08:56.091Z,8.20
2023-02-03T02:09:43.923Z,6.12
2023-02-03T02:10:31.756Z,8.40
2023-02-03T02:11:21.458Z,7.47
2023-02-03T02:12:11.013Z,7.47
2023-02-03T02:12:58.340Z,7.68
2023-02-03T02:13:45.796Z,9.05
2023-02-03T02:14:34.096Z,7.15
2023-02-03T02:15:24.813Z,7.05
2023-02-03T02:16:25.941Z,6.75
2023-02-03T02:17:31.327Z,6.85
2023-02-03T02:18:47.023Z,7.72
2023-02-03T02:19:45.963Z,7.55
2023-02-03T02:21:00.452Z,7.40
2023-02-03T02:22:09.092Z,7.18
2023-02-03T02:23:17.372Z,7.95
2023-02-03T02:24:26.572Z,6.65
2023-02-03T02:25:13.301Z,6.82
2023-02-03T02:26:32.070Z,7.80
2023-02-03T02:27:26.253Z,7.07
2023-02-03T02:28:47.172Z,9.35
2023-02-03T02:29:59.067Z,7.50
2023-02-03T02:30:57.746Z,9.20
2023-02-03T02:32:02.327Z,11.50
2023-02-03T02:32:52.035Z,9.57
2023-02-03T02:33:42.792Z,8.77
2023-02-03T02:34:57.718Z,6.78
2023-02-03T02:35:59.352Z,6.87
2023-02-03T02:36:55.112Z,7.03
2023-02-03T02:37:53.419Z,9.95
2023-02-03T02:38:46.334Z,10.48
2023-02-03T02:39:44.774Z,7.32
2023-02-03T02:41:05.445Z,6.68
2023-02-03T02:42:07.307Z,6.60
2023-02-03T02:43:10.454Z,8.23
2023-02-03T02:44:14.814Z,14.75
2023-02-03T02:45:22.626Z,8.90
2023-02-03T02:46:16.152Z,8.35
2023-02-03T02:47:06.674Z,9.85
2023-02-03T02:48:01.633Z,11.07
2023-02-03T02:49:13.121Z,12.63
2023-02-03T02:50:07.718Z,10.38
2023-02-03T02:50:57.098Z,10.40
2023-02-03T02:51:45.411Z,8.45
2023-02-03T02:52:35.225Z,7.87
2023-02-03T02:53:25.531Z,10.93
2023-02-03T02:54:16.846Z,9.02
2023-02-03T02:55:10.372Z,10.05
2023-02-03T02:55:58.091Z,8.07
2023-02-03T02:56:46.294Z,9.43
2023-02-03T02:57:35.031Z,8.57
2023-02-03T02:58:22.231Z,9.57
2023-02-03T02:59:09.836Z,7.93
2023-02-03T02:59:56.729Z,10.65
2023-02-03T03:00:44.075Z,8.48
2023-02-03T03:01:31.103Z,10.57
2023-02-03T03:02:18.405Z,8.73
2023-02-03T03:03:14.093Z,9.40
2023-02-03T03:04:03.661Z,10.10
2023-02-03T03:04:51.315Z,10.63
2023-02-03T03:05:39.252Z,8.25
2023-02-03T03:07:02.998Z,9.30
2023-02-03T03:08:04.728Z,6.20
2023-02-03T03:08:56.300Z,8.05
2023-02-03T03:09:45.659Z,9.18
2023-02-03T03:10:33.123Z,10.88
2023-02-03T03:11:19.924Z,8.05
2023-02-03T03:12:12.962Z,7.72
2023-02-03T03:13:04.462Z,5.72
2023-02-03T03:13:52.632Z,8.35
2023-02-03T03:14:42.572Z,5.78
2023-02-03T03:15:31.850Z,8.32
2023-02-03T03:16:21.596Z,6.20
2023-02-03T03:17:10.882Z,7.20
2023-02-03T03:18:13.319Z,9.25
2023-02-03T03:19:02.613Z,6.18
2023-02-03T03:19:53.632Z,7.18
2023-02-03T03:20:43.130Z,11.70
2023-02-03T03:21:33.173Z,6.05
2023-02-03T03:22:23.036Z,6.05
2023-02-03T03:23:30.934Z,5.65
2023-02-03T03:24:22.346Z,8.52
2023-02-03T03:25:14.796Z,7.97
2023-02-03T03:26:10.853Z,7.65
2023-02-03T03:27:03.208Z,6.72
2023-02-03T03:27:52.724Z,7.80
2023-02-03T03:28:49.280Z,7.32
2023-02-03T03:30:11.463Z,9.85
2023-02-03T03:30:58.311Z,7.87
2023-02-03T03:31:45.733Z,7.20
2023-02-03T03:32:33.208Z,9.32
2023-02-03T03:33:21.021Z,7.25
2023-02-03T03:34:11.562Z,7.72
2023-02-03T03:34:58.412Z,7.07
2023-02-03T03:35:54.093Z,7.47
2023-02-03T03:36:40.820Z,7.03
2023-02-03T03:37:37.130Z,9.25
2023-02-03T03:38:33.220Z,6.35
2023-02-03T03:39:26.450Z,8.13
2023-02-03T03:40:22.143Z,7.90
2023-02-03T03:41:15.311Z,6.78
2023-02-03T03:42:19.716Z,6.70
2023-02-03T03:43:18.661Z,7.28
2023-02-03T03:44:08.052Z,10.00
2023-02-03T03:45:04.824Z,8.43
2023-02-03T03:46:04.692Z,7.35
2023-02-03T03:47:02.204Z,10.73
2023-02-03T03:48:04.075Z,8.98
2023-02-03T03:48:54.756Z,10.88
2023-02-03T03:50:49.822Z,7.85
2023-02-03T03:51:51.544Z,7.05
2023-02-03T03:52:39.285Z,6.43
2023-02-03T03:53:29.271Z,8.80
2023-02-03T03:54:18.785Z,5.57
2023-02-03T03:55:08.965Z,6.00
2023-02-03T03:55:56.543Z,7.75
2023-02-03T03:56:55.074Z,8.25
2023-02-03T03:57:45.764Z,6.47
2023-02-03T03:59:21.072Z,7.82
2023-02-03T04:00:11.098Z,7.78
2023-02-03T04:01:03.748Z,7.90
2023-02-03T04:01:51.459Z,10.10
2023-02-03T04:02:39.690Z,8.00
2023-02-03T04:03:33.180Z,6.95
2023-02-03T04:04:20.179Z,6.40
2023-02-03T04:05:07.723Z,10.98
2023-02-03T04:05:54.478Z,7.55
2023-02-03T04:06:41.322Z,9.75
2023-02-03T04:07:38.984Z,8.15
2023-02-03T04:08:25.795Z,6.47
2023-02-03T04:09:12.593Z,6.12
2023-02-03T04:09:59.695Z,8.80
2023-02-03T04:10:46.633Z,7.07
2023-02-03T04:11:52.033Z,8.95
2023-02-03T04:12:38.803Z,8.45
2023-02-03T04:13:25.670Z,7.78
2023-02-03T04:14:12.432Z,9.02
2023-02-03T04:14:59.224Z,8.60
2023-02-03T04:15:45.973Z,7.37
2023-02-03T04:16:32.835Z,7.43
2023-02-03T04:17:20.468Z,10.00
2023-02-03T04:18:08.906Z,8.25
2023-02-03T04:18:55.683Z,6.65
2023-02-03T04:19:42.444Z,8.20
2023-02-03T04:20:30.341Z,8.75
2023-02-03T04:21:17.122Z,6.82
2023-02-03T04:22:03.863Z,7.05
2023-02-03T04:22:50.972Z,5.82
2023-02-03T04:23:37.722Z,8.30
2023-02-03T04:24:24.586Z,10.73
2023-02-03T04:25:11.342Z,7.30
2023-02-03T04:26:01.416Z,11.10
2023-02-03T04:26:48.193Z,6.62
2023-02-03T04:27:35.673Z,7.90
2023-02-03T04:28:22.535Z,7.82
2023-02-03T04:29:09.496Z,7.45
2023-02-03T04:29:56.290Z,8.27
2023-02-03T04:30:43.104Z,7.12
2023-02-03T04:31:30.197Z,8.55
2023-02-03T04:32:17.258Z,7.75
2023-02-03T04:33:04.112Z,7.75
2023-02-03T04:33:50.911Z,10.35
2023-02-03T04:34:37.759Z,6.03
2023-02-03T04:35:24.532Z,6.43
2023-02-03T04:36:11.266Z,7.47
2023-02-03T04:36:58.073Z,8.20
2023-02-03T04:37:45.043Z,7.65
2023-02-03T04:38:33.385Z,9.43
2023-02-03T04:39:21.422Z,6.15
2023-02-03T04:40:09.780Z,7.50
2023-02-03T04:40:56.593Z,7.32
2023-02-03T04:41:43.375Z,9.75
2023-02-03T04:42:30.264Z,7.03
2023-02-03T04:43:17.281Z,6.18
2023-02-03T04:44:04.178Z,7.90
2023-02-03T04:44:51.536Z,9.70
2023-02-03T04:45:38.681Z,12.52
2023-02-03T04:46:25.606Z,8.02
2023-02-03T04:47:12.470Z,9.57
2023-02-03T04:47:59.313Z,9.40
2023-02-03T04:48:46.131Z,7.78
2023-02-03T04:49:32.911Z,6.72
2023-02-03T04:50:19.832Z,7.78
2023-02-03T04:51:08.460Z,7.95
2023-02-03T04:51:55.223Z,9.18
2023-02-03T04:52:41.971Z,6.43
2023-02-03T04:53:28.843Z,8.80
2023-02-03T04:54:15.713Z,7.10
2023-02-03T04:55:04.149Z,6.00
2023-02-03T04:55:50.971Z,6.05
2023-02-03T04:56:37.891Z,7.40
2023-02-03T04:57:24.653Z,7.28
2023-02-03T04:58:11.443Z,7.85
2023-02-03T04:58:58.226Z,7.85
2023-02-03T04:59:44.979Z,7.07
2023-02-03T05:00:31.912Z,6.53
2023-02-03T05:01:18.871Z,8.25
2023-02-03T05:02:06.128Z,7.72
2023-02-03T05:02:52.934Z,10.27
2023-02-03T05:03:40.069Z,6.20
2023-02-03T05:04:26.883Z,7.82
2023-02-03T05:05:13.654Z,6.80
2023-02-03T05:06:00.467Z,10.13
2023-02-03T05:06:47.409Z,8.10
2023-02-03T05:07:34.203Z,8.25
2023-02-03T05:08:20.992Z,6.95
2023-02-03T05:09:07.893Z,10.13
2023-02-03T05:09:54.677Z,9.65
2023-02-03T05:10:41.466Z,7.40
2023-02-03T05:11:28.550Z,10.35
2023-02-03T05:12:15.378Z,6.35
2023-02-03T05:13:02.184Z,8.02
2023-02-03T05:13:49.193Z,7.75
2023-02-03T05:14:36.016Z,7.10
2023-02-03T05:15:22.847Z,7.20
2023-02-03T05:16:09.812Z,8.20
2023-02-03T05:16:56.706Z,6.55
2023-02-03T05:17:43.833Z,8.75
2023-02-03T05:18:30.578Z,8.35
2023-02-03T05:19:17.439Z,7.45
2023-02-03T05:20:04.673Z,8.88
2023-02-03T05:20:51.442Z,7.85
2023-02-03T05:21:38.293Z,8.00
2023-02-03T05:22:25.055Z,7.00
2023-02-03T05:23:11.803Z,8.32
2023-02-03T05:23:58.592Z,10.23
2023-02-03T05:24:45.394Z,8.65
2023-02-03T05:25:32.307Z,5.78
2023-02-03T05:26:19.036Z,9.85
2023-02-03T05:27:05.838Z,6.55
2023-02-03T05:27:52.633Z,8.25
2023-02-03T05:28:39.582Z,6.65
2023-02-03T05:29:26.367Z,7.12
2023-02-03T05:30:13.313Z,7.95
2023-02-03T05:31:01.903Z,6.78
2023-02-03T05:31:48.737Z,8.20
2023-02-03T05:32:35.572Z,6.35
2023-02-03T05:33:22.383Z,6.87
2023-02-03T05:34:09.132Z,9.65
2023-02-03T05:34:56.156Z,5.97
2023-02-03T05:35:43.054Z,6.45
2023-02-03T05:36:29.853Z,6.45
2023-02-03T05:37:16.644Z,9.00
2023-02-03T05:38:03.432Z,7.22
2023-02-03T05:38:50.223Z,6.75
2023-02-03T05:39:36.982Z,14.57
2023-02-03T05:40:42.497Z,6.50
2023-02-03T05:41:48.153Z,6.03
2023-02-03T05:42:34.928Z,7.07
2023-02-03T05:43:21.684Z,7.43
2023-02-03T05:44:08.451Z,6.50
2023-02-03T05:44:55.213Z,8.25
2023-02-03T05:45:42.046Z,7.25
2023-02-03T05:46:28.894Z,8.00
2023-02-03T05:47:15.736Z,7.62
2023-02-03T05:48:07.433Z,7.62
2023-02-03T05:48:54.353Z,7.47
2023-02-03T05:49:41.155Z,8.48
2023-02-03T05:50:30.511Z,6.53
2023-02-03T05:51:17.383Z,8.73
2023-02-03T05:52:04.772Z,8.52
2023-02-03T05:52:51.536Z,6.68
2023-02-03T05:53:38.332Z,10.02
2023-02-03T05:54:25.145Z,9.63
2023-02-03T05:55:12.082Z,6.75
2023-02-03T05:55:58.950Z,9.93
2023-02-03T05:56:45.721Z,8.05
2023-02-03T05:57:32.595Z,8.85
2023-02-03T05:58:19.832Z,7.82
2023-02-03T05:59:06.853Z,6.40
2023-02-03T05:59:53.626Z,8.60
2023-02-03T06:00:40.414Z,8.02
2023-02-03T06:01:27.174Z,9.07
2023-02-03T06:02:14.013Z,8.50
2023-02-03T06:03:02.758Z,7.35
2023-02-03T06:03:49.827Z,7.60
2023-02-03T06:04:36.801Z,9.55
2023-02-03T06:05:24.001Z,7.47
2023-02-03T06:06:10.851Z,9.57
2023-02-03T06:06:57.592Z,7.62
2023-02-03T06:07:44.342Z,7.25
2023-02-03T06:08:31.097Z,8.82
2023-02-03T06:09:17.912Z,8.57
2023-02-03T06:10:05.154Z,7.18
2023-02-03T06:10:51.983Z,7.60
2023-02-03T06:11:38.851Z,10.82
2023-02-03T06:12:27.529Z,8.38
2023-02-03T06:13:16.362Z,9.48
2023-02-03T06:14:04.041Z,10.15
2023-02-03T06:14:50.943Z,8.30
2023-02-03T06:15:38.061Z,8.15
2023-02-03T06:16:26.255Z,9.13
2023-02-03T06:17:13.062Z,7.15
2023-02-03T06:17:59.817Z,7.70
2023-02-03T06:18:46.635Z,7.70
2023-02-03T06:19:33.402Z,8.88
2023-02-03T06:20:20.801Z,8.88
2023-02-03T06:21:07.922Z,9.82
2023-02-03T06:21:54.760Z,10.30
2023-02-03T06:22:42.024Z,10.20
2023-02-03T06:23:28.882Z,9.27
2023-02-03T06:24:15.722Z,8.90
2023-02-03T06:25:02.533Z,11.50
2023-02-03T06:25:50.092Z,9.00
2023-02-03T06:26:36.915Z,9.98
2023-02-03T06:27:23.694Z,10.65
2023-02-03T06:28:10.604Z,12.77
2023-02-03T06:28:57.415Z,10.07
2023-02-03T06:29:44.193Z,9.55
2023-02-03T06:30:31.327Z,10.30
2023-02-03T06:31:18.464Z,10.43
2023-02-03T06:32:05.511Z,13.88
2023-02-03T06:32:52.429Z,8.80
2023-02-03T06:33:39.274Z,10.82
2023-02-03T06:34:26.094Z,11.90
2023-02-03T06:35:12.952Z,13.95
2023-02-03T06:35:59.953Z,8.85
2023-02-03T06:36:48.533Z,10.45
2023-02-03T06:37:35.902Z,10.43
2023-02-03T06:38:22.959Z,11.32
2023-02-03T06:39:10.176Z,12.52
2023-02-03T06:39:56.965Z,15.60
2023-02-03T06:40:47.100Z,10.98
2023-02-03T06:41:33.873Z,7.57
2023-02-03T06:42:20.667Z,10.15
2023-02-03T06:43:07.480Z,13.25
2023-02-03T06:43:54.413Z,12.85
2023-02-03T06:44:41.197Z,12.18
2023-02-03T06:45:28.063Z,12.50
2023-02-03T06:46:14.935Z,13.02
2023-02-03T06:47:03.168Z,11.57
2023-02-03T06:47:49.980Z,14.13
2023-02-03T06:48:36.764Z,12.10
2023-02-03T06:49:23.672Z,14.35
2023-02-03T06:50:15.207Z,11.57
2023-02-03T06:51:04.225Z,12.07
2023-02-03T06:51:52.591Z,11.35
2023-02-03T06:52:39.566Z,11.30
2023-02-03T06:53:26.367Z,10.32
2023-02-03T06:54:13.744Z,14.55
2023-02-03T06:55:00.473Z,10.98
2023-02-03T06:55:48.135Z,10.50
2023-02-03T06:56:34.934Z,11.25
2023-02-03T06:57:21.723Z,12.30
2023-02-03T06:58:09.533Z,10.77
2023-02-03T06:58:56.602Z,10.68
2023-02-03T06:59:43.370Z,10.45
2023-02-03T07:00:30.446Z,10.23
2023-02-03T07:01:17.441Z,14.00
2023-02-03T07:02:04.355Z,9.88
2023-02-03T07:02:56.405Z,11.90
2023-02-03T07:03:43.323Z,11.05
2023-02-03T07:04:30.361Z,10.30
2023-02-03T07:05:17.221Z,12.10
2023-02-03T07:06:04.181Z,12.45
2023-02-03T07:06:50.942Z,11.43
2023-02-03T07:07:39.567Z,12.13
2023-02-03T07:08:26.455Z,11.82
2023-02-03T07:09:13.563Z,10.60
2023-02-03T07:10:03.661Z,10.88
2023-02-03T07:10:56.709Z,10.73
2023-02-03T07:11:43.497Z,11.65
2023-02-03T07:12:30.343Z,9.38
2023-02-03T07:13:17.209Z,9.48
2023-02-03T07:14:04.180Z,9.18
2023-02-03T07:14:50.972Z,9.60
2023-02-03T07:15:37.825Z,9.73
2023-02-03T07:16:24.857Z,9.20
2023-02-03T07:17:11.733Z,11.20
2023-02-03T07:17:58.663Z,8.48
2023-02-03T07:18:47.686Z,9.48
2023-02-03T07:19:35.151Z,9.10
2023-02-03T07:20:23.344Z,8.20
2023-02-03T07:21:10.188Z,10.23
2023-02-03T07:21:57.053Z,7.85
2023-02-03T07:22:44.702Z,7.72
2023-02-03T07:23:31.472Z,8.60
2023-02-03T07:24:18.414Z,7.43
2023-02-03T07:25:05.528Z,6.62
2023-02-03T07:25:52.337Z,7.28
2023-02-03T07:26:39.356Z,6.87
2023-02-03T07:27:28.402Z,8.18
2023-02-03T07:28:15.321Z,9.32
2023-02-03T07:29:02.216Z,7.07
2023-02-03T07:29:48.999Z,6.40
2023-02-03T07:30:35.880Z,7.18
2023-02-03T07:31:22.862Z,8.13
2023-02-03T07:32:09.736Z,7.97
2023-02-03T07:32:56.599Z,6.62
2023-02-03T07:33:43.331Z,7.28
2023-02-03T07:34:30.252Z,7.22
2023-02-03T07:35:17.321Z,7.03
2023-02-03T07:36:04.842Z,7.03
2023-02-03T07:36:51.691Z,7.12
2023-02-03T07:37:38.453Z,7.50
2023-02-03T07:38:26.661Z,6.37
2023-02-03T07:39:13.422Z,6.28
2023-02-03T07:40:00.172Z,6.30
2023-02-03T07:40:47.017Z,6.00
2023-02-03T07:41:33.820Z,6.12
2023-02-03T07:42:20.614Z,5.47
2023-02-03T07:43:07.408Z,6.07
2023-02-03T07:43:54.215Z,7.30
2023-02-03T07:44:40.994Z,5.97
2023-02-03T07:45:29.852Z,6.40
2023-02-03T07:46:16.821Z,5.87
2023-02-03T07:47:03.584Z,5.57
2023-02-03T07:47:50.381Z,5.72
2023-02-03T07:48:37.135Z,5.53
2023-02-03T07:49:25.906Z,5.50
2023-02-03T07:50:13.140Z,6.47
2023-02-03T07:50:59.923Z,6.70
2023-02-03T07:51:46.671Z,6.43
2023-02-03T07:52:33.526Z,6.03
2023-02-03T07:53:20.319Z,6.35
2023-02-03T07:54:07.375Z,5.53
2023-02-03T07:54:54.204Z,6.28
2023-02-03T07:55:40.961Z,5.70
2023-02-03T07:56:27.819Z,5.22
2023-02-03T07:57:14.591Z,5.30
2023-02-03T07:58:03.290Z,6.18
2023-02-03T07:58:52.896Z,6.00
2023-02-03T07:59:39.683Z,5.60
2023-02-03T08:00:27.029Z,6.25
2023-02-03T08:01:16.484Z,6.00
2023-02-03T08:02:03.347Z,5.43
2023-02-03T08:02:50.403Z,5.10
2023-02-03T08:03:37.198Z,5.87
2023-02-03T08:04:24.582Z,5.10
2023-02-03T08:05:12.493Z,5.22
2023-02-03T08:05:59.298Z,5.22
2023-02-03T08:06:46.031Z,5.07
2023-02-03T08:07:32.821Z,5.07
2023-02-03T08:08:19.793Z,5.22
2023-02-03T08:09:06.691Z,6.20
2023-02-03T08:09:53.571Z,5.22
2023-02-03T08:10:40.346Z,5.35
2023-02-03T08:11:27.193Z,4.70
2023-02-03T08:12:14.128Z,5.03
2023-02-03T08:13:02.974Z,6.12
2023-02-03T08:13:49.712Z,6.10
2023-02-03T08:14:36.484Z,4.93
2023-02-03T08:15:23.328Z,4.72
2023-02-03T08:16:10.146Z,4.85
2023-02-03T08:16:57.332Z,4.97
2023-02-03T08:17:44.712Z,5.40
2023-02-03T08:18:32.711Z,5.22
2023-02-03T08:19:19.623Z,5.28
2023-02-03T08:20:09.966Z,5.80
2023-02-03T08:20:56.793Z,4.50
2023-02-03T08:21:43.642Z,5.37
2023-02-03T08:22:30.416Z,5.22
2023-02-03T08:23:17.283Z,4.78
2023-02-03T08:24:04.412Z,5.32
2023-02-03T08:24:51.312Z,4.40
2023-02-03T08:25:38.085Z,5.05
2023-02-03T08:26:24.892Z,6.18
2023-02-03T08:27:16.690Z,4.90
2023-02-03T08:28:03.581Z,4.35
2023-02-03T08:28:50.729Z,4.18
2023-02-03T08:29:37.563Z,4.15
2023-02-03T08:30:24.500Z,4.32
2023-02-03T08:31:12.270Z,4.20
2023-02-03T08:31:59.398Z,4.18
2023-02-03T08:32:48.801Z,4.20
2023-02-03T08:33:35.632Z,4.95
2023-02-03T08:34:22.552Z,4.05
2023-02-03T08:35:09.452Z,3.65
2023-02-03T08:35:57.089Z,4.07
2023-02-03T08:36:44.693Z,3.95
2023-02-03T08:37:32.706Z,3.92
2023-02-03T08:38:19.694Z,3.65
2023-02-03T08:39:07.260Z,4.10
2023-02-03T08:39:54.148Z,4.00
2023-02-03T08:40:41.033Z,3.58
2023-02-03T08:41:27.942Z,4.28
2023-02-03T08:42:14.867Z,4.07
2023-02-03T08:43:01.712Z,4.15
2023-02-03T08:43:48.597Z,3.83
2023-02-03T08:44:35.481Z,4.00
2023-02-03T08:45:22.423Z,3.87
2023-02-03T08:46:11.449Z,3.90
2023-02-03T08:46:59.230Z,4.72
2023-02-03T08:47:46.031Z,3.85
2023-02-03T08:48:33.019Z,3.83
2023-02-03T08:49:20.651Z,3.58
2023-02-03T08:50:09.014Z,4.00
2023-02-03T08:50:55.897Z,3.72
2023-02-03T08:51:42.889Z,4.55
2023-02-03T08:52:29.769Z,3.53
2023-02-03T08:53:16.591Z,3.90
2023-02-03T08:54:03.719Z,3.70
2023-02-03T08:54:50.588Z,4.03
2023-02-03T08:55:40.500Z,4.00
2023-02-03T08:56:27.799Z,3.67
2023-02-03T08:57:15.067Z,4.03
2023-02-03T08:58:02.460Z,4.45
2023-02-03T08:58:49.489Z,3.60
2023-02-03T08:59:39.185Z,4.22
2023-02-03T09:00:26.546Z,3.78
2023-02-03T09:01:16.082Z,4.22
2023-02-03T09:02:08.324Z,3.95
2023-02-03T09:02:55.204Z,3.83
2023-02-03T09:03:42.218Z,3.85
2023-02-03T09:04:29.168Z,3.87
2023-02-03T09:05:18.033Z,4.68
2023-02-03T09:06:06.120Z,4.03
2023-02-03T09:06:54.679Z,3.83
2023-02-03T09:07:41.641Z,4.10
2023-02-03T09:08:28.934Z,3.95
2023-02-03T09:09:16.650Z,4.20
2023-02-03T09:10:04.290Z,4.00
2023-02-03T09:10:51.098Z,4.18
2023-02-03T09:11:37.904Z,4.10
2023-02-03T09:12:24.755Z,4.30
2023-02-03T09:13:11.985Z,4.00
2023-02-03T09:13:58.865Z,5.35
2023-02-03T09:14:45.966Z,3.70
2023-02-03T09:15:32.885Z,4.03
2023-02-03T09:16:21.847Z,4.40
2023-02-03T09:17:10.180Z,3.60
2023-02-03T09:17:58.047Z,3.67
2023-02-03T09:18:45.626Z,4.20
2023-02-03T09:19:35.378Z,4.78
2023-02-03T09:20:24.753Z,4.12
2023-02-03T09:21:20.838Z,3.92
2023-02-03T09:22:18.699Z,4.10
2023-02-03T09:23:05.914Z,4.43
2023-02-03T09:23:52.818Z,4.25
2023-02-03T09:24:39.631Z,4.28
2023-02-03T09:25:26.627Z,5.15
2023-02-03T09:26:15.081Z,4.57
2023-02-03T09:27:02.023Z,4.57
2023-02-03T09:27:48.886Z,4.50
2023-02-03T09:28:36.101Z,4.68
2023-02-03T09:29:25.473Z,4.32
2023-02-03T09:30:13.791Z,5.12
2023-02-03T09:31:05.691Z,4.70
2023-02-03T09:31:53.104Z,6.00
2023-02-03T09:32:40.084Z,4.35
2023-02-03T09:33:27.093Z,4.78
2023-02-03T09:34:14.037Z,5.95
2023-02-03T09:35:00.889Z,5.10
2023-02-03T09:35:57.714Z,4.78
2023-02-03T09:36:44.533Z,6.60
2023-02-03T09:37:31.394Z,4.72
2023-02-03T09:38:18.229Z,5.30
2023-02-03T09:39:05.132Z,4.68
2023-02-03T09:39:53.750Z,5.43
2023-02-03T09:40:40.633Z,4.25
2023-02-03T09:41:47.091Z,4.50
2023-02-03T09:42:54.483Z,4.43
2023-02-03T09:43:56.341Z,5.40
2023-02-03T09:44:51.132Z,5.60
2023-02-03T09:45:37.979Z,5.12
2023-02-03T09:46:31.051Z,4.72
2023-02-03T09:47:35.604Z,5.72
2023-02-03T09:48:25.322Z,4.95
2023-02-03T09:49:12.101Z,4.90
2023-02-03T09:50:01.956Z,5.18
2023-02-03T09:50:49.413Z,5.35
2023-02-03T09:51:42.103Z,5.25
2023-02-03T09:52:32.563Z,6.18
2023-02-03T09:53:45.618Z,6.00
2023-02-03T09:54:40.230Z,5.37
2023-02-03T09:55:32.466Z,6.55
2023-02-03T09:56:31.858Z,6.70
2023-02-03T09:57:22.901Z,5.30
2023-02-03T09:58:13.625Z,5.50
2023-02-03T09:59:01.471Z,5.70
2023-02-03T09:59:49.281Z,5.28
2023-02-03T10:00:44.862Z,5.32
2023-02-03T10:01:56.737Z,5.12
2023-02-03T10:02:53.610Z,5.62
2023-02-03T10:03:56.734Z,5.00
2023-02-03T10:04:54.584Z,5.18
2023-02-03T10:05:59.368Z,5.20
2023-02-03T10:06:46.778Z,5.68
2023-02-03T10:08:01.701Z,6.47
2023-02-03T10:09:00.732Z,6.43
2023-02-03T10:09:57.757Z,5.30
2023-02-03T10:11:12.436Z,5.37
2023-02-03T10:12:08.699Z,6.22
2023-02-03T10:13:04.003Z,7.25
2023-02-03T10:14:12.931Z,6.10
2023-02-03T10:15:27.373Z,6.90
2023-02-03T10:16:17.203Z,7.22
2023-02-03T10:17:30.688Z,5.90
2023-02-03T10:18:21.367Z,6.07
2023-02-03T10:20:03.025Z,5.07
2023-02-03T10:20:56.756Z,6.85
2023-02-03T10:21:49.995Z,5.95
2023-02-03T10:22:46.379Z,6.10
2023-02-03T10:23:43.733Z,6.07
2023-02-03T10:24:39.638Z,6.57
2023-02-03T10:25:34.477Z,5.72
2023-02-03T10:26:24.900Z,6.22
2023-02-03T10:27:30.415Z,5.85
2023-02-03T10:28:20.670Z,6.32
2023-02-03T10:29:29.262Z,7.03
2023-02-03T10:30:27.339Z,7.18
2023-02-03T10:31:19.037Z,6.72
2023-02-03T10:32:13.360Z,6.75
2023-02-03T10:33:09.581Z,6.90
2023-02-03T10:34:25.864Z,6.85
2023-02-03T10:35:13.902Z,6.30
2023-02-03T10:36:23.384Z,7.32
2023-02-03T10:37:31.135Z,6.95
2023-02-03T10:38:33.817Z,6.65
2023-02-03T10:39:33.775Z,6.20
2023-02-03T10:40:21.832Z,6.55
2023-02-03T10:41:09.144Z,7.12
2023-02-03T10:41:56.437Z,6.43
2023-02-03T10:43:03.531Z,6.32
2023-02-03T10:43:52.245Z,5.97
2023-02-03T10:44:45.272Z,6.60
2023-02-03T10:45:37.188Z,8.18
2023-02-03T10:46:30.830Z,5.87
2023-02-03T10:47:45.577Z,7.68
2023-02-03T10:48:32.633Z,5.78
2023-02-03T10:49:20.914Z,7.37
2023-02-03T10:50:17.091Z,7.32
2023-02-03T10:51:06.648Z,7.00
2023-02-03T10:51:55.980Z,7.30
2023-02-03T10:52:43.224Z,7.47
2023-02-03T10:53:35.211Z,6.45
2023-02-03T10:54:36.028Z,6.60
2023-02-03T10:56:20.524Z,5.62
2023-02-03T10:57:14.943Z,6.75
2023-02-03T10:58:07.165Z,6.80
2023-02-03T10:58:56.781Z,7.85
2023-02-03T10:59:46.652Z,10.00
2023-02-03T11:00:36.336Z,8.15
2023-02-03T11:01:29.730Z,6.32